Time;durP1;ratioP1;P1;durP2;ratioP2;P2;SDS_P1;SDS_P2;PMS_P1;PMS_P2;Temp;Humidity;BMP_temperature;BMP_pressure;BME280_temperature;BME280_humidity;BME280_pressure;Samples;Min_cycle;Max_cycle;Signal;HPM_P1;HPM_P2
2022/08/16 00:01:50;;;;;;;11.70;6.90;;;;;;;19.46;100.00;97313.38;6187943;23;20012;-92
2022/08/16 00:04:16;;;;;;;13.00;6.38;;;;;;;19.41;100.00;97313.66;6159708;23;20012;-94
2022/08/16 00:06:43;;;;;;;13.32;7.43;;;;;;;19.23;100.00;97314.94;6179679;23;20031;-93
2022/08/16 00:09:09;;;;;;;15.25;8.07;;;;;;;19.21;100.00;97311.56;6153345;23;20424;-95
2022/08/16 00:11:39;;;;;;;12.90;8.35;;;;;;;19.37;100.00;97312.22;6181655;23;20013;-93
2022/08/16 00:14:10;;;;;;;15.27;7.85;;;;;;;19.17;100.00;97310.06;6178214;23;20015;-92
2022/08/16 00:16:35;;;;;;;14.43;8.07;;;;;;;19.12;100.00;97314.81;6159374;23;20032;-94
2022/08/16 00:19:01;;;;;;;14.43;8.27;;;;;;;19.14;100.00;97324.31;6154914;23;20005;-94
2022/08/16 00:21:27;;;;;;;14.75;7.78;;;;;;;19.20;100.00;97321.25;6153008;23;20044;-94
2022/08/16 00:23:53;;;;;;;12.18;7.03;;;;;;;19.05;100.00;97322.28;6154830;23;20005;-96
2022/08/16 00:26:18;;;;;;;14.10;8.20;;;;;;;19.02;100.00;97318.06;6153573;23;20009;-94
2022/08/16 00:28:44;;;;;;;12.25;6.75;;;;;;;19.10;100.00;97325.47;6155545;23;20083;-94
2022/08/16 00:31:09;;;;;;;13.77;7.70;;;;;;;19.17;100.00;97324.13;6182270;23;20059;-96
2022/08/16 00:33:35;;;;;;;12.93;7.78;;;;;;;18.99;100.00;97318.25;6182788;23;20051;-93
2022/08/16 00:36:01;;;;;;;14.43;8.50;;;;;;;19.02;100.00;97330.44;6156114;23;20335;-94
2022/08/16 00:41:20;;;;;;;19.17;11.25;;;;;;;18.93;100.00;97334.53;6180880;23;20008;-95
2022/08/16 00:43:46;;;;;;;18.33;11.05;;;;;;;18.91;100.00;97342.56;6154007;23;20005;-93
2022/08/16 00:46:28;;;;;;;19.27;11.38;;;;;;;18.92;100.00;97341.59;6153793;23;20346;-93
2022/08/16 00:48:54;;;;;;;18.73;11.02;;;;;;;18.93;100.00;97335.38;6180576;23;20005;-94
2022/08/16 00:51:23;;;;;;;18.60;10.80;;;;;;;19.07;100.00;97342.38;6178728;23;20095;-94
2022/08/16 00:53:50;;;;;;;16.70;9.05;;;;;;;18.97;100.00;97340.44;6152992;23;20020;-94
2022/08/16 00:56:22;;;;;;;14.82;8.38;;;;;;;19.23;100.00;97331.66;6154862;23;20319;-94
2022/08/16 00:58:48;;;;;;;15.95;8.95;;;;;;;19.20;100.00;97333.63;6154474;23;20013;-92
2022/08/16 01:01:17;;;;;;;17.20;9.30;;;;;;;19.14;100.00;97332.25;6180869;23;20000;-92
2022/08/16 01:03:47;;;;;;;15.27;9.27;;;;;;;19.10;100.00;97334.25;6153743;23;20016;-93
2022/08/16 01:06:17;;;;;;;18.50;10.65;;;;;;;19.06;100.00;97335.41;6156021;23;20016;-93
2022/08/16 01:08:45;;;;;;;17.38;10.68;;;;;;;19.07;100.00;97331.81;6181994;23;20012;-95
2022/08/16 01:11:13;;;;;;;18.17;10.15;;;;;;;18.96;100.00;97329.03;6155331;23;20016;-93
2022/08/16 01:13:40;;;;;;;17.05;9.98;;;;;;;18.81;100.00;97328.22;6154991;23;20015;-93
2022/08/16 01:16:10;;;;;;;19.20;11.40;;;;;;;18.67;100.00;97337.03;6182035;23;20056;-91
2022/08/16 01:19:13;;;;;;;19.38;11.35;;;;;;;18.63;100.00;97338.19;6154899;23;20079;-93
2022/08/16 01:21:51;;;;;;;18.42;10.05;;;;;;;18.69;100.00;97331.66;6179976;23;20043;-94
2022/08/16 01:24:35;;;;;;;18.17;10.57;;;;;;;18.85;100.00;97327.06;6153291;23;20444;-94
2022/08/16 01:27:25;;;;;;;17.50;10.15;;;;;;;18.63;100.00;97324.97;6153633;23;20019;-95
2022/08/16 01:30:10;;;;;;;14.05;7.95;;;;;;;18.71;100.00;97322.69;6180593;23;21028;-95
2022/08/16 01:32:41;;;;;;;14.02;7.57;;;;;;;18.73;100.00;97320.81;6152679;23;20525;-95
2022/08/16 01:35:34;;;;;;;11.75;6.50;;;;;;;18.67;100.00;97323.84;6154380;23;20340;-94
2022/08/16 01:38:21;;;;;;;8.95;3.90;;;;;;;18.88;100.00;97320.78;6099682;23;20025;-94
2022/08/16 01:40:50;;;;;;;8.75;3.88;;;;;;;18.98;100.00;97321.00;6153654;23;20036;-94
2022/08/16 01:43:16;;;;;;;8.95;4.28;;;;;;;19.31;100.00;97323.19;6153787;23;20066;-94
2022/08/16 01:45:43;;;;;;;7.68;3.20;;;;;;;18.99;100.00;97334.13;6180800;23;20465;-94
2022/08/16 01:48:09;;;;;;;8.23;3.38;;;;;;;19.08;100.00;97341.44;6153195;23;20012;-94
2022/08/16 01:50:41;;;;;;;7.75;3.55;;;;;;;18.86;100.00;97339.34;6154689;23;20012;-92
2022/08/16 01:53:07;;;;;;;7.85;3.47;;;;;;;18.81;100.00;97343.22;6187379;23;20020;-93
2022/08/16 01:55:33;;;;;;;8.05;3.83;;;;;;;18.77;100.00;97345.22;6170021;23;20317;-93
2022/08/16 01:57:59;;;;;;;9.80;3.88;;;;;;;18.64;100.00;97346.97;6186683;23;20016;-92
2022/08/16 02:00:26;;;;;;;9.25;4.70;;;;;;;18.70;100.00;97350.03;6180675;23;20059;-93
2022/08/16 02:02:51;;;;;;;9.48;4.93;;;;;;;18.63;100.00;97355.81;6152087;23;20004;-93
2022/08/16 02:05:17;;;;;;;12.00;5.95;;;;;;;18.38;100.00;97352.09;6170699;23;20001;-95
2022/08/16 02:07:42;;;;;;;11.88;6.10;;;;;;;18.47;100.00;97350.66;6159519;23;20009;-94
2022/08/16 02:10:09;;;;;;;12.40;6.85;;;;;;;18.14;100.00;97354.50;6182695;23;20009;-93
2022/08/16 02:12:37;;;;;;;12.93;7.53;;;;;;;18.06;100.00;97349.69;6179866;23;20039;-92
2022/08/16 02:15:03;;;;;;;14.13;7.90;;;;;;;18.01;100.00;97357.03;6153020;23;20009;-92
2022/08/16 02:17:30;;;;;;;14.85;8.85;;;;;;;17.90;100.00;97355.88;6177332;23;20047;-92
2022/08/16 02:19:56;;;;;;;17.23;9.75;;;;;;;17.78;100.00;97359.28;6152103;23;20435;-92
2022/08/16 02:22:23;;;;;;;16.55;10.13;;;;;;;17.96;100.00;97352.06;6152504;23;20001;-93
2022/08/16 02:24:50;;;;;;;17.85;10.20;;;;;;;17.74;100.00;97363.91;6149851;23;20453;-92
2022/08/16 02:27:16;;;;;;;18.70;11.00;;;;;;;17.70;100.00;97364.16;6151684;23;20086;-92
2022/08/16 02:29:42;;;;;;;21.23;11.95;;;;;;;17.73;100.00;97361.34;6150591;23;20458;-93
2022/08/16 02:32:13;;;;;;;17.90;10.68;;;;;;;17.84;100.00;97358.03;6151477;23;20009;-91
2022/08/16 02:34:38;;;;;;;18.92;11.18;;;;;;;17.98;100.00;97350.19;6151668;23;20036;-93
2022/08/16 02:37:07;;;;;;;18.25;11.85;;;;;;;17.48;100.00;97356.69;6178025;23;20028;-93
2022/08/16 02:43:07;;;;;;;19.13;11.40;;;;;;;17.88;100.00;97349.00;6066393;23;20027;-93
2022/08/16 02:45:33;;;;;;;19.40;11.68;;;;;;;17.77;100.00;97348.81;6151871;23;20013;-94
2022/08/16 02:47:58;;;;;;;19.48;10.63;;;;;;;17.90;100.00;97347.13;6178377;23;20009;-93
2022/08/16 02:50:25;;;;;;;17.83;10.07;;;;;;;17.87;100.00;97350.81;6152272;23;20695;-92
2022/08/16 02:52:51;;;;;;;22.30;12.05;;;;;;;17.83;100.00;97343.16;6150367;23;20016;-92
2022/08/16 02:55:17;;;;;;;23.02;13.65;;;;;;;17.86;100.00;97337.72;6152556;23;20009;-94
2022/08/16 02:57:44;;;;;;;23.45;13.27;;;;;;;17.86;100.00;97343.84;6152442;23;20056;-94
2022/08/16 03:00:12;;;;;;;22.23;13.18;;;;;;;18.01;100.00;97347.34;6151290;23;20013;-95
2022/08/16 03:02:40;;;;;;;19.17;12.05;;;;;;;17.99;100.00;97348.38;6151796;23;20017;-93
2022/08/16 03:05:08;;;;;;;18.80;11.65;;;;;;;18.15;100.00;97351.78;6176823;23;20005;-92
2022/08/16 03:07:37;;;;;;;19.58;12.38;;;;;;;18.03;100.00;97356.00;6152306;23;20009;-92
2022/08/16 03:10:08;;;;;;;24.15;13.30;;;;;;;18.13;100.00;97353.63;6178984;23;20008;-93
2022/08/16 03:12:37;;;;;;;22.13;13.10;;;;;;;18.02;100.00;97354.34;6152885;23;20009;-93
2022/08/16 03:15:04;;;;;;;25.42;14.60;;;;;;;18.22;100.00;97360.16;6179714;23;20017;-93
2022/08/16 03:17:30;;;;;;;24.52;14.68;;;;;;;18.00;100.00;97364.13;6151850;23;20077;-94
2022/08/16 03:19:55;;;;;;;25.67;14.50;;;;;;;18.17;100.00;97359.59;6153170;23;20013;-95
2022/08/16 03:22:22;;;;;;;25.02;14.57;;;;;;;18.04;100.00;97356.88;6151947;23;20068;-92
2022/08/16 03:24:47;;;;;;;24.20;15.43;;;;;;;18.02;100.00;97364.88;6177061;23;20538;-93
2022/08/16 03:27:13;;;;;;;24.77;15.40;;;;;;;17.58;100.00;97371.88;6178163;23;20059;-94
2022/08/16 03:29:41;;;;;;;25.55;15.70;;;;;;;17.76;100.00;97369.09;6151847;23;20096;-93
2022/08/16 03:32:06;;;;;;;23.95;15.13;;;;;;;17.92;100.00;97366.38;6178025;23;20773;-92
2022/08/16 03:34:32;;;;;;;25.88;14.88;;;;;;;17.56;100.00;97371.13;6177993;23;20005;-92
2022/08/16 03:36:59;;;;;;;27.08;15.75;;;;;;;17.75;100.00;97365.56;6151274;23;20017;-92
2022/08/16 03:39:26;;;;;;;26.90;15.43;;;;;;;17.51;100.00;97375.81;6149701;23;20013;-93
2022/08/16 03:41:52;;;;;;;26.33;15.13;;;;;;;17.26;100.00;97368.50;6179317;23;20013;-94
2022/08/16 03:44:18;;;;;;;24.85;15.20;;;;;;;17.26;100.00;97373.78;6180083;23;20012;-94
2022/08/16 03:46:43;;;;;;;25.45;15.05;;;;;;;17.16;100.00;97373.47;6153347;23;20391;-92
2022/08/16 03:49:10;;;;;;;26.45;16.17;;;;;;;17.01;100.00;97379.63;6153460;23;20008;-92
2022/08/16 03:51:37;;;;;;;29.45;17.30;;;;;;;17.15;100.00;97379.66;6153359;23;20013;-93
2022/08/16 03:54:03;;;;;;;26.30;15.38;;;;;;;17.35;100.00;97369.75;6152722;23;20064;-93
2022/08/16 03:56:29;;;;;;;26.90;16.17;;;;;;;17.32;100.00;97368.13;6154379;23;20012;-92
2022/08/16 03:58:55;;;;;;;27.15;15.70;;;;;;;17.36;100.00;97377.56;6153636;23;20087;-93
2022/08/16 04:01:22;;;;;;;27.88;16.15;;;;;;;17.16;100.00;97377.88;6179341;23;20015;-94
2022/08/16 04:03:49;;;;;;;26.05;15.73;;;;;;;17.47;100.00;97381.38;6153368;23;20551;-95
2022/08/16 04:06:15;;;;;;;27.48;15.55;;;;;;;17.39;100.00;97382.66;6182182;23;20005;-91
2022/08/16 04:08:40;;;;;;;24.27;14.77;;;;;;;17.27;100.00;97387.78;6203884;23;19993;-95
2022/08/16 04:11:06;;;;;;;25.33;14.50;;;;;;;17.34;100.00;97384.72;6175817;23;20067;-93
2022/08/16 04:13:31;;;;;;;23.52;13.88;;;;;;;17.14;100.00;97383.25;6184854;23;20008;-92
2022/08/16 04:15:58;;;;;;;22.90;13.48;;;;;;;17.05;100.00;97383.78;6178332;23;20028;-95
2022/08/16 04:18:25;;;;;;;20.55;12.77;;;;;;;17.30;100.00;97392.88;6168324;23;20048;-93
2022/08/16 04:20:51;;;;;;;21.40;12.82;;;;;;;17.29;100.00;97381.50;6179502;23;20108;-94
2022/08/16 04:23:16;;;;;;;22.67;13.02;;;;;;;17.48;100.00;97381.28;6189479;23;20055;-93
2022/08/16 04:25:43;;;;;;;22.30;13.88;;;;;;;17.23;100.00;97387.16;6181781;23;20004;-94
2022/08/16 04:28:09;;;;;;;22.80;13.45;;;;;;;17.36;100.00;97389.91;6153934;23;20008;-94
2022/08/16 04:30:35;;;;;;;23.40;13.38;;;;;;;17.42;100.00;97401.88;6184859;23;20051;-95
2022/08/16 04:33:01;;;;;;;19.80;12.32;;;;;;;17.41;100.00;97403.63;6157108;23;20095;-93
2022/08/16 04:35:27;;;;;;;19.60;12.60;;;;;;;17.57;100.00;97399.16;6153973;23;20004;-95
2022/08/16 04:37:53;;;;;;;19.25;12.50;;;;;;;17.35;100.00;97402.22;6154322;23;20020;-95
2022/08/16 04:40:21;;;;;;;21.25;12.75;;;;;;;17.45;100.00;97404.31;6179699;23;20011;-94
2022/08/16 04:42:46;;;;;;;20.30;12.32;;;;;;;17.24;100.00;97409.91;6179012;23;20032;-94
2022/08/16 04:45:13;;;;;;;19.35;12.25;;;;;;;17.54;100.00;97417.81;6154388;23;20005;-94
2022/08/16 04:47:41;;;;;;;19.90;11.85;;;;;;;17.48;100.00;97422.59;6180344;23;20031;-96
2022/08/16 04:50:30;;;;;;;21.05;12.18;;;;;;;17.73;100.00;97424.63;6154015;23;20095;-95
2022/08/16 04:52:57;;;;;;;18.48;11.73;;;;;;;17.56;100.00;97422.97;6151207;23;20108;-94
2022/08/16 04:55:25;;;;;;;19.17;11.10;;;;;;;17.59;100.00;97422.78;6153042;23;20085;-94
2022/08/16 04:57:55;;;;;;;19.25;10.98;;;;;;;17.58;100.00;97426.41;6152946;23;20377;-92
2022/08/16 05:00:24;;;;;;;19.02;11.38;;;;;;;17.49;100.00;97432.19;6152828;23;20191;-93
2022/08/16 05:02:52;;;;;;;18.92;10.75;;;;;;;17.51;100.00;97428.53;6153087;23;20017;-93
2022/08/16 05:05:19;;;;;;;18.63;10.23;;;;;;;17.75;100.00;97431.50;6152761;23;20035;-93
2022/08/16 05:07:45;;;;;;;17.27;9.90;;;;;;;17.70;100.00;97430.94;6153094;23;20028;-92
2022/08/16 05:10:11;;;;;;;16.20;9.50;;;;;;;17.86;100.00;97432.66;6153547;23;20048;-93
2022/08/16 05:12:37;;;;;;;15.27;9.60;;;;;;;17.66;100.00;97436.47;6150692;23;20012;-93
2022/08/16 05:15:08;;;;;;;15.80;9.57;;;;;;;17.57;100.00;97427.31;6176375;23;20088;-93
2022/08/16 05:17:36;;;;;;;14.60;8.90;;;;;;;17.69;100.00;97436.28;6153858;23;20035;-95
2022/08/16 05:20:08;;;;;;;15.63;9.15;;;;;;;17.67;100.00;97436.38;6152535;23;20012;-94
2022/08/16 05:22:35;;;;;;;14.18;8.63;;;;;;;17.88;100.00;97438.69;6151776;23;20075;-94
2022/08/16 05:25:01;;;;;;;15.55;9.07;;;;;;;17.84;100.00;97437.16;6153773;23;19997;-95
2022/08/16 05:27:27;;;;;;;16.27;8.85;;;;;;;18.08;100.00;97442.81;6152142;23;20020;-93
2022/08/16 05:29:52;;;;;;;15.55;8.85;;;;;;;18.04;100.00;97439.50;6153351;23;20773;-93
2022/08/16 05:32:18;;;;;;;14.50;8.65;;;;;;;17.93;100.00;97438.47;6155846;23;20531;-94
2022/08/16 05:34:44;;;;;;;15.95;8.80;;;;;;;17.96;100.00;97431.19;6152954;23;20020;-94
2022/08/16 05:37:09;;;;;;;14.98;9.00;;;;;;;17.93;100.00;97430.53;6152702;23;20060;-95
2022/08/16 05:39:35;;;;;;;14.77;8.75;;;;;;;17.88;100.00;97434.28;6179330;23;20013;-92
2022/08/16 05:42:00;;;;;;;16.02;9.05;;;;;;;18.00;100.00;97434.50;6152234;23;20005;-92
2022/08/16 05:44:51;;;;;;;19.52;9.45;;;;;;;18.30;100.00;97430.91;6154390;23;20061;-95
2022/08/16 05:47:16;;;;;;;13.48;8.15;;;;;;;17.83;100.00;97438.97;6140992;23;20024;-95
2022/08/16 05:49:42;;;;;;;14.73;8.52;;;;;;;17.88;100.00;97436.03;6186718;23;20012;-95
2022/08/16 05:52:09;;;;;;;16.08;8.68;;;;;;;17.78;100.00;97434.91;6155190;23;20366;-95
2022/08/16 05:54:37;;;;;;;15.75;8.55;;;;;;;17.92;100.00;97442.88;6182804;23;20013;-94
2022/08/16 05:57:04;;;;;;;14.93;8.43;;;;;;;17.84;100.00;97443.31;6157620;23;20139;-94
2022/08/16 05:59:30;;;;;;;15.63;8.45;;;;;;;18.06;100.00;97449.94;6179448;23;20145;-93
2022/08/16 06:01:56;;;;;;;13.90;8.52;;;;;;;17.95;100.00;97449.75;6153603;23;20087;-94
2022/08/16 06:04:22;;;;;;;14.57;8.60;;;;;;;18.13;100.00;97451.25;6179650;23;20051;-94
2022/08/16 06:06:49;;;;;;;14.63;8.60;;;;;;;18.07;100.00;97446.38;6153466;23;20012;-94
2022/08/16 06:09:15;;;;;;;14.55;8.32;;;;;;;17.93;100.00;97447.22;6179449;23;20012;-95
2022/08/16 06:11:42;;;;;;;14.75;8.07;;;;;;;18.10;100.00;97445.34;6179400;23;20009;-92
2022/08/16 06:14:07;;;;;;;13.70;8.07;;;;;;;17.96;100.00;97447.00;6152900;23;20009;-92
2022/08/16 06:16:33;;;;;;;15.70;7.88;;;;;;;18.18;100.00;97449.19;6180570;23;20518;-94
2022/08/16 06:18:59;;;;;;;14.77;8.68;;;;;;;18.18;100.00;97453.66;6155262;23;20017;-93
2022/08/16 06:21:25;;;;;;;15.73;8.70;;;;;;;18.04;100.00;97446.56;6155044;23;20009;-95
2022/08/16 06:23:52;;;;;;;15.50;9.00;;;;;;;18.06;100.00;97445.53;6174052;23;20036;-92
2022/08/16 06:26:23;;;;;;;13.50;8.48;;;;;;;18.16;100.00;97458.16;6200178;23;20059;-93
2022/08/16 06:28:49;;;;;;;14.07;8.23;;;;;;;17.99;100.00;97456.53;6185333;23;19996;-94
2022/08/16 06:31:16;;;;;;;15.90;8.90;;;;;;;17.93;100.00;97456.91;6184854;23;20088;-92
2022/08/16 06:33:42;;;;;;;15.52;8.45;;;;;;;18.07;100.00;97460.41;6172198;23;20024;-92
2022/08/16 06:36:18;;;;;;;17.73;10.10;;;;;;;17.78;100.00;97463.91;6203840;23;20009;-94
2022/08/16 06:38:44;;;;;;;17.30;9.07;;;;;;;17.77;100.00;97467.47;6183594;23;20020;-94
2022/08/16 06:41:10;;;;;;;17.05;9.57;;;;;;;17.85;100.00;97474.00;6154438;23;20037;-95
2022/08/16 06:43:36;;;;;;;18.45;10.80;;;;;;;17.86;100.00;97467.78;6178639;23;20078;-93
2022/08/16 06:46:05;;;;;;;16.60;10.00;;;;;;;18.04;100.00;97476.41;6178506;23;20371;-94
2022/08/16 06:48:32;;;;;;;28.33;10.40;;;;;;;18.35;100.00;97464.00;6159869;23;20016;-95
2022/08/16 06:50:57;;;;;;;16.92;9.10;;;;;;;18.26;100.00;97461.94;6186038;23;20031;-95
2022/08/16 06:53:23;;;;;;;23.38;9.63;;;;;;;18.54;100.00;97454.97;6162398;23;20483;-95
2022/08/16 06:55:49;;;;;;;17.85;9.45;;;;;;;18.38;100.00;97453.25;6187813;23;20691;-94
2022/08/16 06:58:15;;;;;;;15.73;8.70;;;;;;;18.37;100.00;97454.22;6157776;23;20415;-95
2022/08/16 07:00:42;;;;;;;13.75;8.27;;;;;;;18.33;100.00;97451.84;6181216;23;20020;-96
2022/08/16 07:03:08;;;;;;;14.38;8.07;;;;;;;18.58;100.00;97453.81;6160679;23;20016;-93
2022/08/16 07:05:34;;;;;;;13.95;7.55;;;;;;;18.45;100.00;97444.97;6159876;23;20013;-96
2022/08/16 07:08:03;;;;;;;14.65;8.45;;;;;;;18.49;100.00;97447.31;6160179;23;20008;-94
2022/08/16 07:10:28;;;;;;;16.20;8.30;;;;;;;19.01;100.00;97440.56;6159724;23;20457;-94
2022/08/16 07:12:54;;;;;;;13.82;8.15;;;;;;;18.90;100.00;97440.38;6159944;23;20005;-94
2022/08/16 07:15:20;;;;;;;13.88;7.80;;;;;;;19.10;100.00;97442.59;6159494;23;20111;-94
2022/08/16 07:17:50;;;;;;;12.82;7.53;;;;;;;18.88;100.00;97437.00;6187402;23;20347;-94
2022/08/16 07:20:18;;;;;;;14.18;7.63;;;;;;;19.32;100.00;97441.19;6160425;23;20039;-94
2022/08/16 07:22:44;;;;;;;12.57;7.07;;;;;;;18.78;100.00;97460.47;6188179;23;20031;-94
2022/08/16 07:25:13;;;;;;;11.98;7.03;;;;;;;18.67;100.00;97455.88;6161479;23;20447;-94
2022/08/16 07:27:40;;;;;;;14.30;6.95;;;;;;;18.53;100.00;97466.47;6157139;23;20028;-93
2022/08/16 07:30:12;;;;;;;11.57;6.93;;;;;;;18.70;100.00;97466.22;6159115;23;20005;-96
2022/08/16 07:32:38;;;;;;;11.85;6.57;;;;;;;19.33;100.00;97455.25;6183330;23;20005;-94
2022/08/16 07:35:08;;;;;;;10.93;5.75;;;;;;;19.52;100.00;97463.66;6156259;23;20061;-95
2022/08/16 07:37:33;;;;;;;11.80;6.22;;;;;;;19.06;100.00;97470.16;6177014;23;20021;-94
2022/08/16 07:39:59;;;;;;;9.90;5.13;;;;;;;19.12;100.00;97468.06;6180946;23;20082;-94
2022/08/16 07:42:24;;;;;;;12.65;5.78;;;;;;;18.98;100.00;97469.78;6153973;23;20047;-95
2022/08/16 07:44:50;;;;;;;11.70;5.78;;;;;;;19.02;100.00;97466.00;6183306;23;20005;-93
2022/08/16 07:47:16;;;;;;;12.30;5.38;;;;;;;19.89;100.00;97466.53;6156010;23;20375;-93
2022/08/16 07:49:41;;;;;;;11.93;5.50;;;;;;;19.19;100.00;97472.00;6181945;23;20055;-95
2022/08/16 07:52:08;;;;;;;9.32;5.18;;;;;;;19.47;100.00;97472.84;6156156;23;20120;-94
2022/08/16 07:54:34;;;;;;;9.88;4.55;;;;;;;19.54;100.00;97469.72;6184739;23;20001;-96
2022/08/16 07:56:59;;;;;;;9.23;4.72;;;;;;;19.20;100.00;97477.19;6154920;23;20015;-93
2022/08/16 07:59:25;;;;;;;8.68;4.50;;;;;;;19.43;100.00;97470.41;6155210;23;20016;-93
2022/08/16 08:01:51;;;;;;;10.00;4.40;;;;;;;19.67;100.00;97468.91;6181975;23;20501;-94
2022/08/16 08:04:18;;;;;;;10.63;4.65;;;;;;;19.76;100.00;97479.72;6155946;23;20392;-94
2022/08/16 08:06:44;;;;;;;9.20;4.30;;;;;;;20.00;100.00;97484.31;6182435;23;20016;-94
2022/08/16 08:09:10;;;;;;;8.88;4.28;;;;;;;19.79;100.00;97486.56;6181372;23;20008;-95
2022/08/16 08:11:36;;;;;;;9.88;4.13;;;;;;;19.96;100.00;97488.13;6155225;23;20710;-92
2022/08/16 08:14:02;;;;;;;8.45;4.18;;;;;;;20.11;100.00;97486.22;6155606;23;20009;-96
2022/08/16 08:16:28;;;;;;;8.40;4.55;;;;;;;19.76;100.00;97492.94;6155023;23;20044;-93
2022/08/16 08:18:54;;;;;;;9.55;4.00;;;;;;;19.50;100.00;97489.38;6182213;23;20071;-94
2022/08/16 08:21:27;;;;;;;8.80;3.90;;;;;;;19.59;100.00;97493.19;6156296;23;20733;-94
2022/08/16 08:23:56;;;;;;;9.40;4.40;;;;;;;19.54;100.00;97492.66;6155909;23;20691;-95
2022/08/16 08:26:21;;;;;;;13.43;4.20;;;;;;;19.47;100.00;97504.56;6154889;23;20602;-95
2022/08/16 08:28:47;;;;;;;8.48;4.07;;;;;;;19.76;100.00;97502.66;6182337;23;20001;-95
2022/08/16 08:31:13;;;;;;;8.32;4.13;;;;;;;19.82;100.00;97512.00;6155625;23;20067;-95
2022/08/16 08:33:38;;;;;;;9.48;4.32;;;;;;;19.89;100.00;97508.03;6154113;23;20088;-96
2022/08/16 08:36:14;;;;;;;8.85;4.20;;;;;;;20.46;100.00;97504.97;6154508;23;20105;-93
2022/08/16 08:38:41;;;;;;;9.65;4.78;;;;;;;20.20;100.00;97516.53;6178964;23;20012;-94
2022/08/16 08:41:07;;;;;;;10.68;4.95;;;;;;;19.93;100.00;97512.13;6174314;23;20013;-96
2022/08/16 08:43:40;;;;;;;9.50;4.32;;;;;;;20.19;100.00;97523.59;6191060;23;20058;-96
2022/08/16 08:46:09;;;;;;;8.38;4.13;;;;;;;20.31;100.00;97511.34;6199415;23;20028;-96
2022/08/16 08:48:36;;;;;;;11.50;4.85;;;;;;;20.30;100.00;97522.88;6175653;23;20001;-93
2022/08/16 08:51:06;;;;;;;10.95;4.95;;;;;;;20.16;100.00;97537.06;6181218;22;19997;-91
2022/08/16 08:53:32;;;;;;;9.48;4.43;;;;;;;20.60;100.00;97527.00;6176078;23;20036;-91
2022/08/16 08:55:59;;;;;;;9.32;4.45;;;;;;;20.55;100.00;97522.03;6146493;23;20001;-91
2022/08/16 08:58:24;;;;;;;9.50;4.20;;;;;;;20.58;100.00;97534.22;6177581;23;20695;-91
2022/08/16 09:00:50;;;;;;;9.15;4.40;;;;;;;20.56;100.00;97533.47;6167905;23;20020;-91
2022/08/16 09:03:16;;;;;;;8.98;4.10;;;;;;;20.82;100.00;97533.47;6172722;23;20017;-90
2022/08/16 09:05:42;;;;;;;8.50;4.07;;;;;;;21.10;100.00;97540.31;6147381;23;20001;-91
2022/08/16 09:08:08;;;;;;;9.80;4.38;;;;;;;21.20;100.00;97543.16;6146239;23;20013;-91
2022/08/16 09:10:37;;;;;;;8.73;4.25;;;;;;;21.49;100.00;97544.53;6176178;23;20087;-91
2022/08/16 09:13:05;;;;;;;9.90;4.30;;;;;;;20.92;100.00;97545.13;6176342;23;20013;-91
2022/08/16 09:15:31;;;;;;;8.20;4.00;;;;;;;21.18;100.00;97537.94;6147956;23;20079;-93
2022/08/16 09:17:56;;;;;;;8.60;4.20;;;;;;;21.19;100.00;97537.00;6171818;23;20025;-92
2022/08/16 09:20:25;;;;;;;10.35;4.20;;;;;;;21.23;100.00;97538.47;6175368;23;20011;-91
2022/08/16 09:22:50;;;;;;;9.52;4.13;;;;;;;21.59;100.00;97536.78;6174449;23;20009;-91
2022/08/16 09:25:16;;;;;;;9.20;4.38;;;;;;;21.56;100.00;97528.19;6173323;23;20054;-92
2022/08/16 09:27:42;;;;;;;9.15;4.40;;;;;;;20.82;100.00;97538.78;6153023;23;20039;-96
2022/08/16 09:30:08;;;;;;;8.50;4.43;;;;;;;21.13;100.00;97542.75;6160332;23;20032;-96
2022/08/16 09:32:35;;;;;;;10.20;4.60;;;;;;;21.67;100.00;97541.53;6163142;23;20013;-95
2022/08/16 09:35:02;;;;;;;8.95;4.18;;;;;;;21.47;100.00;97551.78;6149457;23;20013;-92
2022/08/16 09:37:30;;;;;;;8.85;4.22;;;;;;;20.92;100.00;97555.75;6142964;23;20459;-89
2022/08/16 09:39:57;;;;;;;10.00;4.40;;;;;;;21.10;100.00;97557.06;6143401;23;20021;-91
2022/08/16 09:42:23;;;;;;;9.18;4.32;;;;;;;21.63;100.00;97555.97;6174401;23;20095;-92
2022/08/16 09:44:49;;;;;;;10.23;4.72;;;;;;;21.33;100.00;97554.56;6148015;23;20371;-94
2022/08/16 09:47:14;;;;;;;9.73;4.03;;;;;;;21.62;100.00;97552.47;6173799;23;20027;-92
2022/08/16 09:49:40;;;;;;;7.15;3.47;;;;;;;21.98;100.00;97556.00;6144937;23;20084;-91
2022/08/16 09:52:05;;;;;;;8.70;4.00;;;;;;;21.50;100.00;97569.25;6173898;23;20040;-93
2022/08/16 09:54:31;;;;;;;7.65;3.55;;;;;;;21.64;100.00;97565.63;6170753;23;20521;-92
2022/08/16 09:56:57;;;;;;;9.27;3.67;;;;;;;21.69;100.00;97566.13;6146602;23;20618;-92
2022/08/16 09:59:24;;;;;;;8.05;3.72;;;;;;;22.12;100.00;97562.94;6146141;23;20013;-91
2022/08/16 10:01:52;;;;;;;9.13;4.00;;;;;;;22.19;100.00;97565.97;6147022;23;20393;-91
2022/08/16 10:04:18;;;;;;;9.20;4.30;;;;;;;22.14;100.00;97558.38;6174964;23;20006;-92
2022/08/16 10:06:44;;;;;;;8.70;4.10;;;;;;;21.83;100.00;97554.50;6172629;23;20020;-93
2022/08/16 10:09:12;;;;;;;8.55;4.32;;;;;;;22.10;100.00;97559.56;6145449;23;20186;-92
2022/08/16 10:14:25;;;;;;;10.07;3.75;;;;;;;21.89;100.00;97561.16;6174834;23;20051;-89
2022/08/16 10:16:52;;;;;;;8.40;4.05;;;;;;;21.71;100.00;97553.63;6172858;23;20005;-90
2022/08/16 10:19:18;;;;;;;10.30;3.75;;;;;;;21.98;100.00;97549.84;6147433;23;20114;-90
2022/08/16 10:21:43;;;;;;;8.57;4.03;;;;;;;21.55;100.00;97550.38;6147627;23;20021;-90
2022/08/16 10:24:09;;;;;;;9.23;4.13;;;;;;;21.99;100.00;97554.22;6173595;23;20008;-89
2022/08/16 10:26:37;;;;;;;8.13;4.00;;;;;;;22.31;100.00;97551.75;6172672;23;20015;-88
2022/08/16 10:29:04;;;;;;;8.18;3.60;;;;;;;22.80;100.00;97557.75;6173489;23;20276;-89
2022/08/16 10:31:31;;;;;;;8.45;3.88;;;;;;;22.11;100.00;97553.25;6154507;23;19993;-90
2022/08/16 10:33:56;;;;;;;8.32;3.65;;;;;;;22.41;100.00;97557.25;6172915;23;20027;-89
2022/08/16 10:36:22;;;;;;;9.00;3.85;;;;;;;22.37;100.00;97549.63;6187699;23;20009;-89
2022/08/16 10:38:48;;;;;;;8.05;3.85;;;;;;;23.48;100.00;97547.09;6177298;23;20013;-90
2022/08/16 10:41:13;;;;;;;8.90;3.70;;;;;;;24.06;100.00;97545.94;6181207;23;20047;-89
2022/08/16 10:43:40;;;;;;;7.45;3.45;;;;;;;24.13;100.00;97552.41;6174805;23;20015;-90
2022/08/16 10:46:10;;;;;;;7.57;3.60;;;;;;;23.35;100.00;97560.56;6161697;23;20013;-88
2022/08/16 10:48:36;;;;;;;8.35;3.85;;;;;;;23.54;100.00;97563.53;6150377;23;20043;-89
2022/08/16 10:51:03;;;;;;;9.45;3.80;;;;;;;24.15;100.00;97558.47;6172268;23;20108;-90
2022/08/16 10:53:31;;;;;;;7.30;3.70;;;;;;;23.14;100.00;97571.06;6171449;23;20016;-90
2022/08/16 10:56:00;;;;;;;7.32;3.22;;;;;;;22.63;100.00;97561.75;6144957;23;20020;-89
2022/08/16 10:58:26;;;;;;;8.30;3.53;;;;;;;22.30;100.00;97570.47;6172022;23;20021;-89
2022/08/16 11:00:52;;;;;;;8.52;2.90;;;;;;;22.27;100.00;97565.41;6172268;23;20127;-89
2022/08/16 11:03:18;;;;;;;8.90;3.00;;;;;;;22.51;100.00;97557.38;6173189;23;20015;-91
2022/08/16 11:05:44;;;;;;;9.05;2.80;;;;;;;22.38;100.00;97564.59;6147059;23;20005;-90
2022/08/16 11:08:10;;;;;;;7.22;2.78;;;;;;;22.28;100.00;97562.63;6174370;23;20021;-92
2022/08/16 11:10:39;;;;;;;6.53;2.85;;;;;;;22.20;100.00;97564.16;6151719;23;20013;-92
2022/08/16 11:13:06;;;;;;;9.60;3.17;;;;;;;22.07;100.00;97565.06;6147795;23;20039;-92
2022/08/16 11:15:33;;;;;;;11.25;3.42;;;;;;;22.52;100.00;97563.53;6177246;23;20096;-92
2022/08/16 11:17:59;;;;;;;7.03;3.08;;;;;;;22.35;100.00;97572.81;6175403;23;20091;-91
2022/08/16 11:20:27;;;;;;;6.88;3.00;;;;;;;22.49;100.00;97572.56;6149128;23;20464;-90
2022/08/16 11:22:53;;;;;;;7.72;3.17;;;;;;;22.13;100.00;97574.41;6175382;23;20011;-91
2022/08/16 11:25:22;;;;;;;7.32;3.00;;;;;;;22.94;100.00;97574.47;6149041;23;20033;-92
2022/08/16 11:27:47;;;;;;;7.00;3.00;;;;;;;23.36;100.00;97582.66;6148282;23;20017;-92